sensor_id;sensor_type;location;lat;lon;timestamp;temperature;humidity
15930;DHT22;8064;51.142;4.780;2023-12-20T00:02:14;7.90;99.90
15930;DHT22;8064;51.142;4.780;2023-12-20T00:04:40;7.90;99.90
15930;DHT22;8064;51.142;4.780;2023-12-20T00:07:06;7.80;99.90
15930;DHT22;8064;51.142;4.780;2023-12-20T00:09:31;7.80;99.90
15930;DHT22;8064;51.142;4.780;2023-12-20T00:11:57;7.90;99.90
15930;DHT22;8064;51.142;4.780;2023-12-20T00:14:23;7.90;99.90
15930;DHT22;8064;51.142;4.780;2023-12-20T00:16:48;7.90;99.90
15930;DHT22;8064;51.142;4.780;2023-12-20T00:19:14;7.90;99.90
15930;DHT22;8064;51.142;4.780;2023-12-20T00:21:40;7.90;99.90
15930;DHT22;8064;51.142;4.780;2023-12-20T00:24:07;7.90;99.90
15930;DHT22;8064;51.142;4.780;2023-12-20T00:26:32;7.90;99.90
15930;DHT22;8064;51.142;4.780;2023-12-20T00:28:58;7.90;99.90
15930;DHT22;8064;51.142;4.780;2023-12-20T00:31:24;7.90;99.90
15930;DHT22;8064;51.142;4.780;2023-12-20T00:33:49;7.90;99.90
15930;DHT22;8064;51.142;4.780;2023-12-20T00:36:15;7.90;99.90
15930;DHT22;8064;51.142;4.780;2023-12-20T00:38:41;7.80;99.90
15930;DHT22;8064;51.142;4.780;2023-12-20T00:41:07;7.80;99.90
15930;DHT22;8064;51.142;4.780;2023-12-20T00:43:32;7.80;99.90
15930;DHT22;8064;51.142;4.780;2023-12-20T00:45:58;7.70;99.90
15930;DHT22;8064;51.142;4.780;2023-12-20T00:48:25;7.70;99.90
15930;DHT22;8064;51.142;4.780;2023-12-20T00:50:52;7.60;99.90
15930;DHT22;8064;51.142;4.780;2023-12-20T00:53:18;7.60;99.90
15930;DHT22;8064;51.142;4.780;2023-12-20T00:55:45;7.50;99.90
15930;DHT22;8064;51.142;4.780;2023-12-20T00:58:10;7.40;99.90
15930;DHT22;8064;51.142;4.780;2023-12-20T01:00:36;7.40;99.90
15930;DHT22;8064;51.142;4.780;2023-12-20T01:03:02;7.30;99.90
15930;DHT22;8064;51.142;4.780;2023-12-20T01:05:28;7.30;99.90
15930;DHT22;8064;51.142;4.780;2023-12-20T01:07:54;7.20;99.90
15930;DHT22;8064;51.142;4.780;2023-12-20T01:10:20;7.20;99.90
15930;DHT22;8064;51.142;4.780;2023-12-20T01:12:47;7.10;99.90
15930;DHT22;8064;51.142;4.780;2023-12-20T01:15:13;7.10;99.90
15930;DHT22;8064;51.142;4.780;2023-12-20T01:17:38;7.00;99.90
15930;DHT22;8064;51.142;4.780;2023-12-20T01:20:05;7.00;99.90
15930;DHT22;8064;51.142;4.780;2023-12-20T01:22:31;7.00;99.90
15930;DHT22;8064;51.142;4.780;2023-12-20T01:24:57;6.90;99.90
15930;DHT22;8064;51.142;4.780;2023-12-20T01:27:22;6.90;99.90
15930;DHT22;8064;51.142;4.780;2023-12-20T01:29:48;6.90;99.90
15930;DHT22;8064;51.142;4.780;2023-12-20T01:32:14;6.80;99.90
15930;DHT22;8064;51.142;4.780;2023-12-20T01:34:40;6.80;99.90
15930;DHT22;8064;51.142;4.780;2023-12-20T01:37:06;6.80;99.90
15930;DHT22;8064;51.142;4.780;2023-12-20T01:39:32;6.80;99.90
15930;DHT22;8064;51.142;4.780;2023-12-20T01:41:57;6.80;99.90
15930;DHT22;8064;51.142;4.780;2023-12-20T01:44:23;6.80;99.90
15930;DHT22;8064;51.142;4.780;2023-12-20T01:46:49;6.80;99.90
15930;DHT22;8064;51.142;4.780;2023-12-20T01:49:15;6.80;99.90
15930;DHT22;8064;51.142;4.780;2023-12-20T01:51:40;6.80;99.90
15930;DHT22;8064;51.142;4.780;2023-12-20T01:54:06;6.80;99.90
15930;DHT22;8064;51.142;4.780;2023-12-20T01:56:32;6.80;99.90
15930;DHT22;8064;51.142;4.780;2023-12-20T01:58:59;6.90;99.90
15930;DHT22;8064;51.142;4.780;2023-12-20T02:01:25;6.90;99.90
15930;DHT22;8064;51.142;4.780;2023-12-20T02:03:54;6.90;99.90
15930;DHT22;8064;51.142;4.780;2023-12-20T02:06:21;6.90;99.90
15930;DHT22;8064;51.142;4.780;2023-12-20T02:08:49;6.90;99.90
15930;DHT22;8064;51.142;4.780;2023-12-20T02:11:16;6.90;99.90
15930;DHT22;8064;51.142;4.780;2023-12-20T02:13:41;6.90;99.90
15930;DHT22;8064;51.142;4.780;2023-12-20T02:16:07;6.90;99.90
15930;DHT22;8064;51.142;4.780;2023-12-20T02:18:33;6.90;99.90
15930;DHT22;8064;51.142;4.780;2023-12-20T02:20:59;6.90;99.90
15930;DHT22;8064;51.142;4.780;2023-12-20T02:23:25;6.90;99.90
15930;DHT22;8064;51.142;4.780;2023-12-20T02:25:51;6.90;99.90
15930;DHT22;8064;51.142;4.780;2023-12-20T02:28:16;6.80;99.90
15930;DHT22;8064;51.142;4.780;2023-12-20T02:30:42;6.90;99.90
15930;DHT22;8064;51.142;4.780;2023-12-20T02:33:10;6.90;99.90
15930;DHT22;8064;51.142;4.780;2023-12-20T02:35:38;6.90;99.90
15930;DHT22;8064;51.142;4.780;2023-12-20T02:38:03;6.90;99.90
15930;DHT22;8064;51.142;4.780;2023-12-20T02:40:29;6.90;99.90
15930;DHT22;8064;51.142;4.780;2023-12-20T02:42:55;6.90;99.90
15930;DHT22;8064;51.142;4.780;2023-12-20T02:45:21;7.00;99.90
15930;DHT22;8064;51.142;4.780;2023-12-20T02:47:46;7.00;99.90
15930;DHT22;8064;51.142;4.780;2023-12-20T02:50:12;7.00;99.90
15930;DHT22;8064;51.142;4.780;2023-12-20T02:52:38;7.00;99.90
15930;DHT22;8064;51.142;4.780;2023-12-20T02:55:04;7.00;99.90
15930;DHT22;8064;51.142;4.780;2023-12-20T02:57:30;7.00;99.90
15930;DHT22;8064;51.142;4.780;2023-12-20T02:59:55;6.90;99.90
15930;DHT22;8064;51.142;4.780;2023-12-20T03:02:21;7.00;99.90
15930;DHT22;8064;51.142;4.780;2023-12-20T03:04:47;6.90;99.90
15930;DHT22;8064;51.142;4.780;2023-12-20T03:07:12;6.90;99.90
15930;DHT22;8064;51.142;4.780;2023-12-20T03:09:38;6.90;99.90
15930;DHT22;8064;51.142;4.780;2023-12-20T03:12:04;6.90;99.90
15930;DHT22;8064;51.142;4.780;2023-12-20T03:14:30;6.90;99.90
15930;DHT22;8064;51.142;4.780;2023-12-20T03:16:56;6.90;99.90
15930;DHT22;8064;51.142;4.780;2023-12-20T03:19:22;6.90;99.90
15930;DHT22;8064;51.142;4.780;2023-12-20T03:21:48;7.00;99.90
15930;DHT22;8064;51.142;4.780;2023-12-20T03:24:13;7.00;99.90
15930;DHT22;8064;51.142;4.780;2023-12-20T03:26:39;7.00;99.90
15930;DHT22;8064;51.142;4.780;2023-12-20T03:29:05;6.90;99.90
15930;DHT22;8064;51.142;4.780;2023-12-20T03:31:30;7.00;99.90
15930;DHT22;8064;51.142;4.780;2023-12-20T03:33:56;7.00;99.90
15930;DHT22;8064;51.142;4.780;2023-12-20T03:36:22;7.00;99.90
15930;DHT22;8064;51.142;4.780;2023-12-20T03:38:48;7.00;99.90
15930;DHT22;8064;51.142;4.780;2023-12-20T03:41:14;7.00;99.90
15930;DHT22;8064;51.142;4.780;2023-12-20T03:43:39;7.00;99.90
15930;DHT22;8064;51.142;4.780;2023-12-20T03:46:05;7.00;99.90
15930;DHT22;8064;51.142;4.780;2023-12-20T03:48:33;7.10;99.90
15930;DHT22;8064;51.142;4.780;2023-12-20T03:50:58;7.10;99.90
15930;DHT22;8064;51.142;4.780;2023-12-20T03:53:24;7.10;99.90
15930;DHT22;8064;51.142;4.780;2023-12-20T03:55:50;7.10;99.90
15930;DHT22;8064;51.142;4.780;2023-12-20T03:58:16;7.10;99.90
15930;DHT22;8064;51.142;4.780;2023-12-20T04:00:41;7.10;99.90
15930;DHT22;8064;51.142;4.780;2023-12-20T04:03:07;7.10;99.90
15930;DHT22;8064;51.142;4.780;2023-12-20T04:05:33;7.10;99.90
15930;DHT22;8064;51.142;4.780;2023-12-20T04:08:01;7.10;99.90
15930;DHT22;8064;51.142;4.780;2023-12-20T04:10:27;7.10;99.90
15930;DHT22;8064;51.142;4.780;2023-12-20T04:12:53;7.10;99.90
15930;DHT22;8064;51.142;4.780;2023-12-20T04:15:19;7.10;99.90
15930;DHT22;8064;51.142;4.780;2023-12-20T04:17:44;7.10;99.90
15930;DHT22;8064;51.142;4.780;2023-12-20T04:20:10;7.10;99.90
15930;DHT22;8064;51.142;4.780;2023-12-20T04:22:36;7.10;99.90
15930;DHT22;8064;51.142;4.780;2023-12-20T04:25:02;7.10;99.90
15930;DHT22;8064;51.142;4.780;2023-12-20T04:27:27;7.10;99.90
15930;DHT22;8064;51.142;4.780;2023-12-20T04:29:53;7.10;99.90
15930;DHT22;8064;51.142;4.780;2023-12-20T04:32:19;7.10;99.90
15930;DHT22;8064;51.142;4.780;2023-12-20T04:34:45;7.10;99.90
15930;DHT22;8064;51.142;4.780;2023-12-20T04:37:11;7.10;99.90
15930;DHT22;8064;51.142;4.780;2023-12-20T04:39:38;7.10;99.90
15930;DHT22;8064;51.142;4.780;2023-12-20T04:42:04;7.10;99.90
15930;DHT22;8064;51.142;4.780;2023-12-20T04:44:29;7.10;99.90
15930;DHT22;8064;51.142;4.780;2023-12-20T04:46:55;7.10;99.90
15930;DHT22;8064;51.142;4.780;2023-12-20T04:49:22;7.10;99.90
15930;DHT22;8064;51.142;4.780;2023-12-20T04:51:47;7.10;99.90
15930;DHT22;8064;51.142;4.780;2023-12-20T04:54:13;7.10;99.90
15930;DHT22;8064;51.142;4.780;2023-12-20T04:56:39;7.10;99.90
15930;DHT22;8064;51.142;4.780;2023-12-20T04:59:05;7.10;99.90
15930;DHT22;8064;51.142;4.780;2023-12-20T05:01:31;7.00;99.90
15930;DHT22;8064;51.142;4.780;2023-12-20T05:03:57;7.00;99.90
15930;DHT22;8064;51.142;4.780;2023-12-20T05:06:22;7.00;99.90
15930;DHT22;8064;51.142;4.780;2023-12-20T05:08:48;7.00;99.90
15930;DHT22;8064;51.142;4.780;2023-12-20T05:11:14;7.00;99.90
15930;DHT22;8064;51.142;4.780;2023-12-20T05:13:41;7.00;99.90
15930;DHT22;8064;51.142;4.780;2023-12-20T05:16:07;7.00;99.90
15930;DHT22;8064;51.142;4.780;2023-12-20T05:18:34;7.00;99.90
15930;DHT22;8064;51.142;4.780;2023-12-20T05:21:00;7.00;99.90
15930;DHT22;8064;51.142;4.780;2023-12-20T05:23:26;6.90;99.90
15930;DHT22;8064;51.142;4.780;2023-12-20T05:25:52;6.90;99.90
15930;DHT22;8064;51.142;4.780;2023-12-20T05:28:18;6.90;99.90
15930;DHT22;8064;51.142;4.780;2023-12-20T05:30:43;6.90;99.90
15930;DHT22;8064;51.142;4.780;2023-12-20T05:33:09;6.90;99.90
15930;DHT22;8064;51.142;4.780;2023-12-20T05:35:35;6.90;99.90
15930;DHT22;8064;51.142;4.780;2023-12-20T05:38:00;6.80;99.90
15930;DHT22;8064;51.142;4.780;2023-12-20T05:40:26;6.80;99.90
15930;DHT22;8064;51.142;4.780;2023-12-20T05:42:52;6.80;99.90
15930;DHT22;8064;51.142;4.780;2023-12-20T05:45:18;6.80;99.90
15930;DHT22;8064;51.142;4.780;2023-12-20T05:47:43;6.80;99.90
15930;DHT22;8064;51.142;4.780;2023-12-20T05:50:09;6.80;99.90
15930;DHT22;8064;51.142;4.780;2023-12-20T05:52:35;6.80;99.90
15930;DHT22;8064;51.142;4.780;2023-12-20T05:55:01;6.80;99.90
15930;DHT22;8064;51.142;4.780;2023-12-20T05:57:27;6.80;99.90
15930;DHT22;8064;51.142;4.780;2023-12-20T05:59:53;6.70;99.90
15930;DHT22;8064;51.142;4.780;2023-12-20T06:02:19;6.70;99.90
15930;DHT22;8064;51.142;4.780;2023-12-20T06:04:45;6.80;99.90
15930;DHT22;8064;51.142;4.780;2023-12-20T06:07:12;6.70;99.90
15930;DHT22;8064;51.142;4.780;2023-12-20T06:09:38;6.70;99.90
15930;DHT22;8064;51.142;4.780;2023-12-20T06:12:04;6.70;99.90
15930;DHT22;8064;51.142;4.780;2023-12-20T06:14:30;6.70;99.90
15930;DHT22;8064;51.142;4.780;2023-12-20T06:16:57;6.80;99.90
15930;DHT22;8064;51.142;4.780;2023-12-20T06:19:23;6.80;99.90
15930;DHT22;8064;51.142;4.780;2023-12-20T06:21:49;6.80;99.90
15930;DHT22;8064;51.142;4.780;2023-12-20T06:24:14;6.80;99.90
15930;DHT22;8064;51.142;4.780;2023-12-20T06:26:40;6.80;99.90
15930;DHT22;8064;51.142;4.780;2023-12-20T06:29:07;6.70;99.90
15930;DHT22;8064;51.142;4.780;2023-12-20T06:31:32;6.70;99.90
15930;DHT22;8064;51.142;4.780;2023-12-20T06:33:59;6.70;99.90
15930;DHT22;8064;51.142;4.780;2023-12-20T06:36:26;6.70;99.90
15930;DHT22;8064;51.142;4.780;2023-12-20T06:38:52;6.70;99.90
15930;DHT22;8064;51.142;4.780;2023-12-20T06:41:18;6.70;99.90
15930;DHT22;8064;51.142;4.780;2023-12-20T06:43:44;6.70;99.90
15930;DHT22;8064;51.142;4.780;2023-12-20T06:46:10;6.70;99.90
15930;DHT22;8064;51.142;4.780;2023-12-20T06:48:36;6.70;99.90
15930;DHT22;8064;51.142;4.780;2023-12-20T06:51:02;6.60;99.90
15930;DHT22;8064;51.142;4.780;2023-12-20T06:53:28;6.60;99.90
15930;DHT22;8064;51.142;4.780;2023-12-20T06:55:54;6.60;99.90
15930;DHT22;8064;51.142;4.780;2023-12-20T06:58:21;6.60;99.90
15930;DHT22;8064;51.142;4.780;2023-12-20T07:00:47;6.60;99.90
15930;DHT22;8064;51.142;4.780;2023-12-20T07:03:13;6.60;99.90
15930;DHT22;8064;51.142;4.780;2023-12-20T07:05:39;6.60;99.90
15930;DHT22;8064;51.142;4.780;2023-12-20T07:08:06;6.60;99.90
15930;DHT22;8064;51.142;4.780;2023-12-20T07:10:32;6.60;99.90
15930;DHT22;8064;51.142;4.780;2023-12-20T07:12:58;6.60;99.90
15930;DHT22;8064;51.142;4.780;2023-12-20T07:15:24;6.60;99.90
15930;DHT22;8064;51.142;4.780;2023-12-20T07:17:49;6.70;99.90
15930;DHT22;8064;51.142;4.780;2023-12-20T07:20:15;6.70;99.90
15930;DHT22;8064;51.142;4.780;2023-12-20T07:22:41;6.70;99.90
15930;DHT22;8064;51.142;4.780;2023-12-20T07:25:07;6.70;99.90
15930;DHT22;8064;51.142;4.780;2023-12-20T07:27:33;6.70;99.90
15930;DHT22;8064;51.142;4.780;2023-12-20T07:29:59;6.70;99.90
15930;DHT22;8064;51.142;4.780;2023-12-20T07:32:25;6.70;99.90
15930;DHT22;8064;51.142;4.780;2023-12-20T07:34:50;6.70;99.90
15930;DHT22;8064;51.142;4.780;2023-12-20T07:37:16;6.80;99.90
15930;DHT22;8064;51.142;4.780;2023-12-20T07:39:42;6.70;99.90
15930;DHT22;8064;51.142;4.780;2023-12-20T07:42:08;6.70;99.90
15930;DHT22;8064;51.142;4.780;2023-12-20T07:44:34;6.80;99.90
15930;DHT22;8064;51.142;4.780;2023-12-20T07:47:02;6.80;99.90
15930;DHT22;8064;51.142;4.780;2023-12-20T07:49:28;6.70;99.90
15930;DHT22;8064;51.142;4.780;2023-12-20T07:51:53;6.80;99.90
15930;DHT22;8064;51.142;4.780;2023-12-20T07:54:19;6.80;99.90
15930;DHT22;8064;51.142;4.780;2023-12-20T07:56:46;6.80;99.90
15930;DHT22;8064;51.142;4.780;2023-12-20T07:59:12;6.80;99.90
15930;DHT22;8064;51.142;4.780;2023-12-20T08:01:38;6.80;99.90
15930;DHT22;8064;51.142;4.780;2023-12-20T08:04:04;6.80;99.90
15930;DHT22;8064;51.142;4.780;2023-12-20T08:06:29;6.80;99.90
15930;DHT22;8064;51.142;4.780;2023-12-20T08:08:55;6.80;99.90
15930;DHT22;8064;51.142;4.780;2023-12-20T08:11:21;6.90;99.90
15930;DHT22;8064;51.142;4.780;2023-12-20T08:13:47;6.90;99.90
15930;DHT22;8064;51.142;4.780;2023-12-20T08:16:12;6.90;99.90
15930;DHT22;8064;51.142;4.780;2023-12-20T08:18:39;6.90;99.90
15930;DHT22;8064;51.142;4.780;2023-12-20T08:21:05;6.90;99.90
15930;DHT22;8064;51.142;4.780;2023-12-20T08:23:33;6.90;99.90
15930;DHT22;8064;51.142;4.780;2023-12-20T08:26:04;7.00;99.90
15930;DHT22;8064;51.142;4.780;2023-12-20T08:28:30;7.00;99.90
15930;DHT22;8064;51.142;4.780;2023-12-20T08:30:56;7.00;99.90
15930;DHT22;8064;51.142;4.780;2023-12-20T08:33:22;7.00;99.90
15930;DHT22;8064;51.142;4.780;2023-12-20T08:35:48;7.10;99.90
15930;DHT22;8064;51.142;4.780;2023-12-20T08:38:14;7.10;99.90
15930;DHT22;8064;51.142;4.780;2023-12-20T08:40:40;7.10;99.90
15930;DHT22;8064;51.142;4.780;2023-12-20T08:43:05;7.20;99.90
15930;DHT22;8064;51.142;4.780;2023-12-20T08:45:31;7.30;99.90
15930;DHT22;8064;51.142;4.780;2023-12-20T08:47:57;7.40;99.90
15930;DHT22;8064;51.142;4.780;2023-12-20T08:50:23;7.40;99.90
15930;DHT22;8064;51.142;4.780;2023-12-20T08:52:48;7.60;99.90
15930;DHT22;8064;51.142;4.780;2023-12-20T08:55:14;7.60;99.90
15930;DHT22;8064;51.142;4.780;2023-12-20T08:57:42;7.80;99.90
15930;DHT22;8064;51.142;4.780;2023-12-20T09:00:08;7.90;99.90
15930;DHT22;8064;51.142;4.780;2023-12-20T09:02:34;8.00;99.90
15930;DHT22;8064;51.142;4.780;2023-12-20T09:05:02;8.50;99.90
15930;DHT22;8064;51.142;4.780;2023-12-20T09:07:28;9.50;99.90
15930;DHT22;8064;51.142;4.780;2023-12-20T09:09:56;10.60;99.90
15930;DHT22;8064;51.142;4.780;2023-12-20T09:12:22;12.20;99.90
15930;DHT22;8064;51.142;4.780;2023-12-20T09:14:49;13.50;99.90
15930;DHT22;8064;51.142;4.780;2023-12-20T09:17:16;14.10;99.90
15930;DHT22;8064;51.142;4.780;2023-12-20T09:19:42;15.20;99.90
15930;DHT22;8064;51.142;4.780;2023-12-20T09:22:09;16.00;99.90
15930;DHT22;8064;51.142;4.780;2023-12-20T09:24:35;16.00;99.90
15930;DHT22;8064;51.142;4.780;2023-12-20T09:27:01;16.80;99.90
15930;DHT22;8064;51.142;4.780;2023-12-20T09:29:28;17.60;99.50
15930;DHT22;8064;51.142;4.780;2023-12-20T09:31:54;18.30;98.70
15930;DHT22;8064;51.142;4.780;2023-12-20T09:34:20;18.70;97.60
15930;DHT22;8064;51.142;4.780;2023-12-20T09:36:46;18.90;96.80
15930;DHT22;8064;51.142;4.780;2023-12-20T09:39:14;19.30;96.10
15930;DHT22;8064;51.142;4.780;2023-12-20T09:41:44;20.00;95.00
15930;DHT22;8064;51.142;4.780;2023-12-20T09:44:15;19.00;94.50
15930;DHT22;8064;51.142;4.780;2023-12-20T09:46:44;18.70;95.50
15930;DHT22;8064;51.142;4.780;2023-12-20T09:49:12;17.30;94.80
15930;DHT22;8064;51.142;4.780;2023-12-20T09:51:39;17.10;96.00
15930;DHT22;8064;51.142;4.780;2023-12-20T09:54:06;18.30;95.50
15930;DHT22;8064;51.142;4.780;2023-12-20T09:56:32;19.70;94.50
15930;DHT22;8064;51.142;4.780;2023-12-20T09:58:59;18.50;94.60
15930;DHT22;8064;51.142;4.780;2023-12-20T10:01:26;18.80;94.30
15930;DHT22;8064;51.142;4.780;2023-12-20T10:03:54;19.80;92.60
15930;DHT22;8064;51.142;4.780;2023-12-20T10:06:21;20.30;92.20
15930;DHT22;8064;51.142;4.780;2023-12-20T10:08:47;19.30;92.30
15930;DHT22;8064;51.142;4.780;2023-12-20T10:11:13;17.60;93.80
15930;DHT22;8064;51.142;4.780;2023-12-20T10:13:40;16.10;95.20
15930;DHT22;8064;51.142;4.780;2023-12-20T10:16:07;15.00;96.30
15930;DHT22;8064;51.142;4.780;2023-12-20T10:18:33;14.50;97.40
15930;DHT22;8064;51.142;4.780;2023-12-20T10:21:00;14.50;97.70
15930;DHT22;8064;51.142;4.780;2023-12-20T10:23:26;15.10;97.10
15930;DHT22;8064;51.142;4.780;2023-12-20T10:25:56;14.70;97.20
15930;DHT22;8064;51.142;4.780;2023-12-20T10:28:23;15.10;97.40
15930;DHT22;8064;51.142;4.780;2023-12-20T10:30:54;14.40;97.50
15930;DHT22;8064;51.142;4.780;2023-12-20T10:33:27;13.50;98.40
15930;DHT22;8064;51.142;4.780;2023-12-20T10:35:54;12.70;99.20
15930;DHT22;8064;51.142;4.780;2023-12-20T10:38:20;12.20;99.90
15930;DHT22;8064;51.142;4.780;2023-12-20T10:40:46;11.70;99.90
15930;DHT22;8064;51.142;4.780;2023-12-20T10:43:12;11.50;99.90
15930;DHT22;8064;51.142;4.780;2023-12-20T10:45:39;11.30;99.90
15930;DHT22;8064;51.142;4.780;2023-12-20T10:48:05;11.00;99.90
15930;DHT22;8064;51.142;4.780;2023-12-20T10:50:31;10.70;99.90
15930;DHT22;8064;51.142;4.780;2023-12-20T10:52:58;10.50;99.90
15930;DHT22;8064;51.142;4.780;2023-12-20T10:55:25;10.20;99.90
15930;DHT22;8064;51.142;4.780;2023-12-20T10:57:51;10.00;99.90
15930;DHT22;8064;51.142;4.780;2023-12-20T11:00:19;9.80;99.90
15930;DHT22;8064;51.142;4.780;2023-12-20T11:02:49;9.60;99.90
15930;DHT22;8064;51.142;4.780;2023-12-20T11:06:00;9.50;99.90
15930;DHT22;8064;51.142;4.780;2023-12-20T11:08:39;9.40;99.90
15930;DHT22;8064;51.142;4.780;2023-12-20T11:16:21;9.10;99.90
15930;DHT22;8064;51.142;4.780;2023-12-20T11:18:46;9.10;99.90
15930;DHT22;8064;51.142;4.780;2023-12-20T11:21:12;9.00;99.90
15930;DHT22;8064;51.142;4.780;2023-12-20T11:23:42;9.00;99.90
15930;DHT22;8064;51.142;4.780;2023-12-20T11:26:08;8.90;99.90
15930;DHT22;8064;51.142;4.780;2023-12-20T11:28:34;8.90;99.90
15930;DHT22;8064;51.142;4.780;2023-12-20T11:31:01;8.90;99.90
15930;DHT22;8064;51.142;4.780;2023-12-20T11:33:36;8.80;99.90
15930;DHT22;8064;51.142;4.780;2023-12-20T11:36:02;8.80;99.90
15930;DHT22;8064;51.142;4.780;2023-12-20T11:38:36;8.80;99.90
15930;DHT22;8064;51.142;4.780;2023-12-20T11:41:06;8.80;99.90
15930;DHT22;8064;51.142;4.780;2023-12-20T11:43:35;8.70;99.90
15930;DHT22;8064;51.142;4.780;2023-12-20T11:46:09;8.70;99.90
15930;DHT22;8064;51.142;4.780;2023-12-20T11:48:37;8.70;99.90
15930;DHT22;8064;51.142;4.780;2023-12-20T11:51:08;8.60;99.90
15930;DHT22;8064;51.142;4.780;2023-12-20T11:53:34;8.60;99.90
15930;DHT22;8064;51.142;4.780;2023-12-20T11:56:00;8.60;99.90
15930;DHT22;8064;51.142;4.780;2023-12-20T11:58:28;8.60;99.90
15930;DHT22;8064;51.142;4.780;2023-12-20T12:00:55;8.60;99.90
15930;DHT22;8064;51.142;4.780;2023-12-20T12:03:21;8.60;99.90
15930;DHT22;8064;51.142;4.780;2023-12-20T12:05:47;8.60;99.90
15930;DHT22;8064;51.142;4.780;2023-12-20T12:08:14;8.70;99.90
15930;DHT22;8064;51.142;4.780;2023-12-20T12:10:39;8.70;99.90
15930;DHT22;8064;51.142;4.780;2023-12-20T12:13:05;8.70;99.90
15930;DHT22;8064;51.142;4.780;2023-12-20T12:15:31;8.80;99.90
15930;DHT22;8064;51.142;4.780;2023-12-20T12:17:57;8.80;99.90
15930;DHT22;8064;51.142;4.780;2023-12-20T12:20:24;8.80;99.90
15930;DHT22;8064;51.142;4.780;2023-12-20T12:23:00;8.80;99.90
15930;DHT22;8064;51.142;4.780;2023-12-20T12:25:26;8.80;99.90
15930;DHT22;8064;51.142;4.780;2023-12-20T12:27:52;8.80;99.90
15930;DHT22;8064;51.142;4.780;2023-12-20T12:30:18;8.80;99.90
15930;DHT22;8064;51.142;4.780;2023-12-20T12:32:44;8.80;99.90
15930;DHT22;8064;51.142;4.780;2023-12-20T12:35:10;8.90;99.90
15930;DHT22;8064;51.142;4.780;2023-12-20T12:37:39;8.90;99.90
15930;DHT22;8064;51.142;4.780;2023-12-20T12:40:09;8.90;99.90
15930;DHT22;8064;51.142;4.780;2023-12-20T12:42:37;8.90;99.90
15930;DHT22;8064;51.142;4.780;2023-12-20T12:45:03;8.90;99.90
15930;DHT22;8064;51.142;4.780;2023-12-20T12:47:30;8.90;99.90
15930;DHT22;8064;51.142;4.780;2023-12-20T12:49:56;8.90;99.90
15930;DHT22;8064;51.142;4.780;2023-12-20T12:52:22;8.90;99.90
15930;DHT22;8064;51.142;4.780;2023-12-20T12:54:48;8.90;99.90
15930;DHT22;8064;51.142;4.780;2023-12-20T12:57:15;8.90;99.90
15930;DHT22;8064;51.142;4.780;2023-12-20T12:59:42;8.90;99.90
15930;DHT22;8064;51.142;4.780;2023-12-20T13:02:09;9.00;99.90
15930;DHT22;8064;51.142;4.780;2023-12-20T13:04:35;9.00;99.90
15930;DHT22;8064;51.142;4.780;2023-12-20T13:07:01;9.10;99.90
15930;DHT22;8064;51.142;4.780;2023-12-20T13:09:26;9.10;99.90
15930;DHT22;8064;51.142;4.780;2023-12-20T13:11:52;9.10;99.90
15930;DHT22;8064;51.142;4.780;2023-12-20T13:14:18;9.20;99.90
15930;DHT22;8064;51.142;4.780;2023-12-20T13:16:44;9.20;99.90
15930;DHT22;8064;51.142;4.780;2023-12-20T13:19:11;9.20;99.90
15930;DHT22;8064;51.142;4.780;2023-12-20T13:21:36;9.20;99.90
15930;DHT22;8064;51.142;4.780;2023-12-20T13:24:03;9.30;99.90
15930;DHT22;8064;51.142;4.780;2023-12-20T13:26:28;9.30;99.90
15930;DHT22;8064;51.142;4.780;2023-12-20T13:28:55;9.40;99.90
15930;DHT22;8064;51.142;4.780;2023-12-20T13:31:21;9.40;99.90
15930;DHT22;8064;51.142;4.780;2023-12-20T13:33:46;9.40;99.90
15930;DHT22;8064;51.142;4.780;2023-12-20T13:36:12;9.40;99.90
15930;DHT22;8064;51.142;4.780;2023-12-20T13:38:38;9.40;99.90
15930;DHT22;8064;51.142;4.780;2023-12-20T13:41:04;9.40;99.90
15930;DHT22;8064;51.142;4.780;2023-12-20T13:43:31;9.40;99.90
15930;DHT22;8064;51.142;4.780;2023-12-20T13:45:59;9.40;99.90
15930;DHT22;8064;51.142;4.780;2023-12-20T13:48:25;9.40;99.90
15930;DHT22;8064;51.142;4.780;2023-12-20T13:50:51;9.40;99.90
15930;DHT22;8064;51.142;4.780;2023-12-20T13:53:16;9.40;99.90
15930;DHT22;8064;51.142;4.780;2023-12-20T13:55:42;9.40;99.90
15930;DHT22;8064;51.142;4.780;2023-12-20T13:58:08;9.40;99.90
15930;DHT22;8064;51.142;4.780;2023-12-20T14:00:36;9.50;99.90
15930;DHT22;8064;51.142;4.780;2023-12-20T14:03:03;9.50;99.90
15930;DHT22;8064;51.142;4.780;2023-12-20T14:05:29;9.50;99.90
15930;DHT22;8064;51.142;4.780;2023-12-20T14:07:55;9.50;99.90
15930;DHT22;8064;51.142;4.780;2023-12-20T14:10:23;9.50;99.90
15930;DHT22;8064;51.142;4.780;2023-12-20T14:12:50;9.50;99.90
15930;DHT22;8064;51.142;4.780;2023-12-20T14:15:16;9.50;99.90
15930;DHT22;8064;51.142;4.780;2023-12-20T14:17:42;9.50;99.90
15930;DHT22;8064;51.142;4.780;2023-12-20T14:20:08;9.50;99.90
15930;DHT22;8064;51.142;4.780;2023-12-20T14:22:35;9.50;99.90
15930;DHT22;8064;51.142;4.780;2023-12-20T14:25:01;9.50;99.90
15930;DHT22;8064;51.142;4.780;2023-12-20T14:27:28;9.50;99.90
15930;DHT22;8064;51.142;4.780;2023-12-20T14:29:54;9.60;99.90
15930;DHT22;8064;51.142;4.780;2023-12-20T14:32:20;9.60;99.90
15930;DHT22;8064;51.142;4.780;2023-12-20T14:34:46;9.60;99.90
15930;DHT22;8064;51.142;4.780;2023-12-20T14:37:12;9.60;99.90
15930;DHT22;8064;51.142;4.780;2023-12-20T14:39:38;9.60;99.90
15930;DHT22;8064;51.142;4.780;2023-12-20T14:42:07;9.60;99.90
15930;DHT22;8064;51.142;4.780;2023-12-20T14:44:36;9.60;99.90
15930;DHT22;8064;51.142;4.780;2023-12-20T14:47:02;9.60;99.90
15930;DHT22;8064;51.142;4.780;2023-12-20T14:49:28;9.60;99.90
15930;DHT22;8064;51.142;4.780;2023-12-20T14:51:54;9.60;99.90
15930;DHT22;8064;51.142;4.780;2023-12-20T14:54:20;9.60;99.90
15930;DHT22;8064;51.142;4.780;2023-12-20T14:56:46;9.60;99.90
15930;DHT22;8064;51.142;4.780;2023-12-20T14:59:12;9.60;99.90
15930;DHT22;8064;51.142;4.780;2023-12-20T15:01:38;9.60;99.90
15930;DHT22;8064;51.142;4.780;2023-12-20T15:04:06;9.60;99.90
15930;DHT22;8064;51.142;4.780;2023-12-20T15:06:33;9.60;99.90
15930;DHT22;8064;51.142;4.780;2023-12-20T15:08:59;9.60;99.90
15930;DHT22;8064;51.142;4.780;2023-12-20T15:11:26;9.60;99.90
15930;DHT22;8064;51.142;4.780;2023-12-20T15:13:52;9.60;99.90
15930;DHT22;8064;51.142;4.780;2023-12-20T15:16:22;9.60;99.90
15930;DHT22;8064;51.142;4.780;2023-12-20T15:18:48;9.60;99.90
15930;DHT22;8064;51.142;4.780;2023-12-20T15:21:15;9.60;99.90
15930;DHT22;8064;51.142;4.780;2023-12-20T15:23:41;9.60;99.90
15930;DHT22;8064;51.142;4.780;2023-12-20T15:26:18;9.60;99.90
15930;DHT22;8064;51.142;4.780;2023-12-20T15:28:44;9.60;99.90
15930;DHT22;8064;51.142;4.780;2023-12-20T15:31:09;9.60;99.90
15930;DHT22;8064;51.142;4.780;2023-12-20T15:33:35;9.60;99.90
15930;DHT22;8064;51.142;4.780;2023-12-20T15:36:01;9.60;99.90
15930;DHT22;8064;51.142;4.780;2023-12-20T15:38:27;9.70;99.90
15930;DHT22;8064;51.142;4.780;2023-12-20T15:40:52;9.70;99.90
15930;DHT22;8064;51.142;4.780;2023-12-20T15:43:18;9.60;99.90
15930;DHT22;8064;51.142;4.780;2023-12-20T15:45:44;9.70;99.90
15930;DHT22;8064;51.142;4.780;2023-12-20T15:48:11;9.70;99.90
15930;DHT22;8064;51.142;4.780;2023-12-20T15:50:43;9.70;99.90
15930;DHT22;8064;51.142;4.780;2023-12-20T15:53:09;9.70;99.90
15930;DHT22;8064;51.142;4.780;2023-12-20T15:55:35;9.70;99.90
15930;DHT22;8064;51.142;4.780;2023-12-20T15:58:00;9.70;99.90
15930;DHT22;8064;51.142;4.780;2023-12-20T16:00:26;9.70;99.90